createdAt,value
2022-11-04T00:00:29.999Z,60.35
2022-11-04T00:02:58.525Z,60.28
2022-11-04T00:05:27.872Z,60.09
2022-11-04T00:08:13.064Z,59.86
2022-11-04T00:10:58.369Z,59.64
2022-11-04T00:13:26.466Z,60.37
2022-11-04T00:16:11.885Z,60.45
2022-11-04T00:18:39.895Z,60.36
2022-11-04T00:21:26.981Z,60.10
2022-11-04T00:24:12.213Z,59.90
2022-11-04T00:26:57.452Z,60.07
2022-11-04T00:29:25.596Z,60.28
2022-11-04T00:32:10.896Z,59.90
2022-11-04T00:34:38.979Z,59.54
2022-11-04T00:37:08.345Z,59.28
2022-11-04T00:39:36.379Z,59.24
2022-11-04T00:42:04.570Z,59.25
2022-11-04T00:44:32.635Z,59.30
2022-11-04T00:47:00.634Z,59.44
2022-11-04T00:49:28.676Z,59.92
2022-11-04T00:51:56.696Z,60.55
2022-11-04T00:54:26.089Z,60.00
2022-11-04T00:56:55.121Z,59.86
2022-11-04T00:59:23.101Z,60.26
2022-11-04T01:01:51.258Z,61.12
2022-11-04T01:04:19.347Z,60.58
2022-11-04T01:06:47.703Z,60.76
2022-11-04T01:09:15.719Z,60.46
2022-11-04T01:11:45.047Z,61.43
2022-11-04T01:14:13.592Z,61.89
2022-11-04T01:16:41.902Z,61.67
2022-11-04T01:19:10.572Z,61.67
2022-11-04T01:21:38.612Z,61.26
2022-11-04T01:24:07.445Z,60.95
2022-11-04T01:26:35.544Z,60.93
2022-11-04T01:29:04.996Z,61.42
2022-11-04T01:31:33.425Z,61.23
2022-11-04T01:34:01.433Z,61.82
2022-11-04T01:36:29.664Z,62.46
2022-11-04T01:38:58.129Z,62.29
2022-11-04T01:41:28.413Z,61.99
2022-11-04T01:43:57.990Z,61.63
2022-11-04T01:46:44.341Z,61.42
2022-11-04T01:49:25.230Z,61.25
2022-11-04T01:52:00.562Z,61.53
2022-11-04T01:54:30.115Z,61.72
2022-11-04T01:56:59.047Z,62.23
2022-11-04T01:59:31.404Z,62.07
2022-11-04T02:02:00.869Z,62.08
2022-11-04T02:04:30.189Z,61.79
2022-11-04T02:07:00.973Z,62.23
2022-11-04T02:09:31.317Z,62.12
2022-11-04T02:12:17.016Z,62.08
2022-11-04T02:14:47.788Z,62.03
2022-11-04T02:17:33.244Z,62.21
2022-11-04T02:20:19.148Z,61.80
2022-11-04T02:23:22.679Z,61.80
2022-11-04T02:26:20.004Z,62.18
2022-11-04T02:29:09.007Z,62.16
2022-11-04T02:31:46.136Z,61.98
2022-11-04T02:34:22.934Z,61.99
2022-11-04T02:36:59.843Z,62.28
2022-11-04T02:39:37.716Z,62.22
2022-11-04T02:42:13.906Z,62.15
2022-11-04T02:44:49.305Z,62.43
2022-11-04T02:47:22.221Z,62.21
2022-11-04T02:49:56.380Z,62.50
2022-11-04T02:52:31.030Z,62.55
2022-11-04T02:55:04.096Z,62.77
2022-11-04T02:57:36.296Z,62.63
2022-11-04T03:00:07.852Z,62.34
2022-11-04T03:02:39.057Z,62.55
2022-11-04T03:05:10.415Z,62.81
2022-11-04T03:07:42.959Z,61.99
2022-11-04T03:10:16.964Z,61.89
2022-11-04T03:12:49.668Z,62.18
2022-11-04T03:15:24.850Z,61.99
2022-11-04T03:17:59.365Z,62.08
2022-11-04T03:20:29.890Z,62.81
2022-11-04T03:23:00.214Z,63.08
2022-11-04T03:25:33.433Z,62.99
2022-11-04T03:28:07.526Z,63.07
2022-11-04T03:30:43.423Z,62.35
2022-11-04T03:33:19.761Z,62.21
2022-11-04T03:35:47.993Z,62.24
2022-11-04T03:38:16.053Z,62.47
2022-11-04T03:40:44.123Z,62.31
2022-11-04T03:43:15.872Z,62.83
2022-11-04T03:45:45.389Z,62.98
2022-11-04T03:48:14.051Z,63.01
2022-11-04T03:50:44.064Z,62.86
2022-11-04T03:53:14.463Z,63.22
2022-11-04T03:55:52.338Z,62.53
2022-11-04T03:58:31.527Z,62.83
2022-11-04T04:01:09.350Z,62.39
2022-11-04T04:03:43.529Z,62.40
2022-11-04T04:06:17.928Z,62.81
2022-11-04T04:08:49.786Z,63.11
2022-11-04T04:11:20.990Z,63.34
2022-11-04T04:13:55.614Z,62.85
2022-11-04T04:16:31.496Z,62.70
2022-11-04T04:19:02.522Z,62.91
2022-11-04T04:21:33.324Z,62.95
2022-11-04T04:24:21.605Z,62.79
2022-11-04T04:27:08.434Z,62.79
2022-11-04T04:29:37.884Z,63.53
2022-11-04T04:32:08.296Z,62.90
2022-11-04T04:34:36.577Z,62.28
2022-11-04T04:37:07.672Z,62.16
2022-11-04T04:39:58.298Z,62.66
2022-11-04T04:42:44.096Z,62.80
2022-11-04T04:45:20.541Z,62.64
2022-11-04T04:47:50.056Z,62.53
2022-11-04T04:50:20.302Z,62.30
2022-11-04T04:52:50.789Z,62.79
2022-11-04T04:55:19.384Z,62.38
2022-11-04T04:57:47.428Z,62.28
2022-11-04T05:00:17.740Z,62.57
2022-11-04T05:02:46.225Z,62.55
2022-11-04T05:07:48.872Z,62.79
2022-11-04T05:10:18.333Z,62.82
2022-11-04T05:13:03.764Z,62.57
2022-11-04T05:15:32.223Z,62.63
2022-11-04T05:18:02.313Z,62.82
2022-11-04T05:20:34.298Z,62.30
2022-11-04T05:23:02.542Z,62.49
2022-11-04T05:25:30.665Z,62.24
2022-11-04T05:28:01.104Z,61.89
2022-11-04T05:30:29.194Z,62.36
2022-11-04T05:33:00.022Z,62.08
2022-11-04T05:35:33.245Z,62.03
2022-11-04T05:38:01.339Z,62.27
2022-11-04T05:40:29.345Z,63.16
2022-11-04T05:42:59.749Z,62.69
2022-11-04T05:45:28.106Z,63.21
2022-11-04T05:48:00.169Z,62.88
2022-11-04T05:50:28.926Z,62.98
2022-11-04T05:52:59.899Z,62.63
2022-11-04T05:55:28.371Z,62.83
2022-11-04T05:57:58.010Z,62.80
2022-11-04T06:00:27.072Z,62.79
2022-11-04T06:02:57.267Z,62.77
2022-11-04T06:05:25.586Z,62.80
2022-11-04T06:07:53.636Z,62.61
2022-11-04T06:10:23.432Z,62.60
2022-11-04T06:12:51.584Z,63.24
2022-11-04T06:15:19.597Z,63.02
2022-11-04T06:17:47.685Z,63.02
2022-11-04T06:20:16.556Z,62.88
2022-11-04T06:22:44.605Z,63.05
2022-11-04T06:25:12.961Z,62.87
2022-11-04T06:27:42.408Z,62.88
2022-11-04T06:30:12.857Z,62.95
2022-11-04T06:32:40.914Z,62.74
2022-11-04T06:35:09.951Z,62.40
2022-11-04T06:37:38.263Z,62.31
2022-11-04T06:40:07.568Z,62.41
2022-11-04T06:42:35.616Z,62.44
2022-11-04T06:45:05.702Z,62.37
2022-11-04T06:47:33.748Z,62.29
2022-11-04T06:50:01.977Z,62.33
2022-11-04T06:52:29.998Z,62.17
2022-11-04T06:54:58.078Z,62.51
2022-11-04T06:57:26.052Z,62.15
2022-11-04T06:59:54.078Z,62.08
2022-11-04T07:02:23.662Z,62.41
2022-11-04T07:04:52.124Z,62.29
2022-11-04T07:07:20.162Z,62.33
2022-11-04T07:09:48.360Z,62.41
2022-11-04T07:12:16.670Z,62.78
2022-11-04T07:14:44.671Z,63.15
2022-11-04T07:17:13.136Z,62.96
2022-11-04T07:19:42.594Z,62.96
2022-11-04T07:22:10.701Z,62.92
2022-11-04T07:24:38.728Z,62.90
2022-11-04T07:27:07.766Z,62.72
2022-11-04T07:29:35.801Z,62.74
2022-11-04T07:32:04.076Z,62.72
2022-11-04T07:34:32.110Z,62.59
2022-11-04T07:37:01.461Z,62.21
2022-11-04T07:39:29.553Z,62.66
2022-11-04T07:41:59.572Z,62.53
2022-11-04T07:44:28.047Z,62.59
2022-11-04T07:46:56.435Z,63.00
2022-11-04T07:49:25.379Z,62.92
2022-11-04T07:51:53.541Z,63.08
2022-11-04T07:54:22.917Z,63.13
2022-11-04T07:56:50.965Z,63.16
2022-11-04T07:59:18.965Z,63.47
2022-11-04T08:01:47.019Z,62.95
2022-11-04T08:04:15.034Z,63.22
2022-11-04T08:06:43.084Z,63.76
2022-11-04T08:09:11.088Z,63.57
2022-11-04T08:11:40.495Z,61.96
2022-11-04T08:14:08.529Z,61.60
2022-11-04T08:16:36.595Z,60.06
2022-11-04T08:19:04.692Z,58.73
2022-11-04T08:21:34.195Z,57.61
2022-11-04T08:24:03.905Z,57.58
2022-11-04T08:26:31.947Z,56.89
2022-11-04T08:29:02.552Z,55.78
2022-11-04T08:31:33.767Z,53.60
2022-11-04T08:34:02.814Z,53.30
2022-11-04T08:36:34.420Z,52.43
2022-11-04T08:39:09.988Z,53.04
2022-11-04T08:41:41.133Z,52.21
2022-11-04T08:44:11.678Z,51.26
2022-11-04T08:46:41.081Z,51.39
2022-11-04T08:49:11.378Z,51.95
2022-11-04T08:51:44.797Z,51.34
2022-11-04T08:54:12.847Z,49.24
2022-11-04T08:56:41.637Z,49.09
2022-11-04T08:59:12.585Z,50.11
2022-11-04T09:01:40.790Z,51.90
2022-11-04T09:04:09.206Z,53.42
2022-11-04T09:06:39.725Z,54.64
2022-11-04T09:09:09.815Z,54.81
2022-11-04T09:11:39.520Z,54.02
2022-11-04T09:14:08.152Z,54.07
2022-11-04T09:16:38.869Z,54.72
2022-11-04T09:19:07.252Z,55.16
2022-11-04T09:21:35.300Z,55.45
2022-11-04T09:24:03.331Z,55.92
2022-11-04T09:26:31.981Z,58.58
2022-11-04T09:29:01.157Z,57.73
2022-11-04T09:31:31.202Z,55.71
2022-11-04T09:34:00.554Z,52.85
2022-11-04T09:36:29.174Z,51.50
2022-11-04T09:38:57.175Z,48.56
2022-11-04T09:41:43.946Z,47.20
2022-11-04T09:44:21.899Z,47.54
2022-11-04T09:46:51.592Z,48.44
2022-11-04T09:49:22.367Z,48.43
2022-11-04T09:51:54.847Z,48.09
2022-11-04T09:54:25.721Z,46.41
2022-11-04T09:56:55.723Z,45.75
2022-11-04T09:59:28.749Z,45.57
2022-11-04T10:02:26.170Z,44.61
2022-11-04T10:05:06.045Z,44.13
2022-11-04T10:07:49.995Z,41.57
2022-11-04T10:10:24.304Z,41.74
2022-11-04T10:13:12.534Z,40.20
2022-11-04T10:15:55.245Z,40.85
2022-11-04T10:18:43.595Z,40.84
2022-11-04T10:21:24.792Z,40.23
2022-11-04T10:24:06.628Z,39.71
2022-11-04T10:26:42.160Z,39.41
2022-11-04T10:29:16.176Z,39.30
2022-11-04T10:31:46.263Z,38.37
2022-11-04T10:34:24.682Z,39.50
2022-11-04T10:36:54.501Z,42.19
2022-11-04T10:39:29.044Z,41.03
2022-11-04T10:41:58.245Z,38.98
2022-11-04T10:44:31.291Z,38.08
2022-11-04T10:47:11.654Z,37.87
2022-11-04T10:52:52.795Z,36.32
2022-11-04T10:55:38.089Z,36.31
2022-11-04T10:58:16.139Z,36.40
2022-11-04T11:00:45.275Z,37.32
2022-11-04T11:03:32.512Z,37.00
2022-11-04T11:06:17.831Z,37.24
2022-11-04T11:08:47.677Z,36.89
2022-11-04T11:11:16.663Z,37.69
2022-11-04T11:13:46.471Z,36.97
2022-11-04T11:16:19.518Z,35.82
2022-11-04T11:19:15.873Z,36.08
2022-11-04T11:21:45.732Z,37.76
2022-11-04T11:24:20.031Z,38.84
2022-11-04T11:26:49.879Z,38.44
2022-11-04T11:29:22.956Z,38.12
2022-11-04T11:31:53.089Z,40.17
2022-11-04T11:34:26.485Z,41.99
2022-11-04T11:36:56.340Z,43.16
2022-11-04T11:39:28.132Z,42.29
2022-11-04T11:42:00.387Z,42.10
2022-11-04T11:44:33.084Z,43.22
2022-11-04T11:47:03.723Z,44.05
2022-11-04T11:49:34.474Z,45.96
2022-11-04T11:52:26.938Z,46.20
2022-11-04T11:55:04.368Z,46.97
2022-11-04T11:57:43.189Z,47.15
2022-11-04T12:03:13.280Z,48.34
2022-11-04T12:11:54.875Z,44.25
2022-11-04T12:14:32.097Z,40.85
2022-11-04T12:17:08.473Z,39.49
2022-11-04T12:19:53.180Z,36.90
2022-11-04T12:22:30.425Z,36.41
2022-11-04T12:25:10.429Z,37.47
2022-11-04T12:27:50.634Z,38.54
2022-11-04T12:30:29.810Z,39.43
2022-11-04T12:33:17.989Z,40.73
2022-11-04T12:36:01.015Z,42.00
2022-11-04T12:38:52.339Z,42.71
2022-11-04T12:41:52.321Z,43.12
2022-11-04T12:44:29.829Z,44.38
2022-11-04T12:47:07.230Z,45.04
2022-11-04T12:49:50.099Z,47.03
2022-11-04T12:52:33.613Z,46.86
2022-11-04T12:55:18.656Z,47.02
2022-11-04T12:57:56.367Z,47.20
2022-11-04T13:00:28.336Z,47.99
2022-11-04T13:03:02.835Z,48.70
2022-11-04T13:05:43.736Z,47.18
2022-11-04T13:08:20.038Z,46.87
2022-11-04T13:10:54.252Z,47.21
2022-11-04T13:13:27.710Z,46.25
2022-11-04T13:16:00.574Z,47.38
2022-11-04T13:18:36.487Z,48.99
2022-11-04T13:21:08.842Z,50.27
2022-11-04T13:23:42.432Z,50.66
2022-11-04T13:26:14.573Z,51.03
2022-11-04T13:28:43.864Z,51.27
2022-11-04T13:31:21.516Z,51.42
2022-11-04T13:33:55.795Z,51.70
2022-11-04T13:36:33.770Z,51.92
2022-11-04T13:39:07.504Z,52.53
2022-11-04T13:42:05.159Z,52.56
2022-11-04T13:44:38.695Z,53.16
2022-11-04T13:47:22.200Z,53.71
2022-11-04T13:49:52.238Z,53.92
2022-11-04T13:52:20.687Z,54.09
2022-11-04T13:54:55.187Z,54.11
2022-11-04T13:57:25.852Z,54.11
2022-11-04T14:00:22.495Z,54.59
2022-11-04T14:02:53.154Z,55.42
2022-11-04T14:05:48.524Z,54.72
2022-11-04T14:08:17.981Z,52.01
2022-11-04T14:10:59.503Z,49.08
2022-11-04T14:13:47.804Z,48.08
2022-11-04T14:16:41.297Z,46.47
2022-11-04T14:19:57.757Z,45.74
2022-11-04T14:22:35.303Z,45.64
2022-11-04T14:25:19.150Z,45.09
2022-11-04T14:27:48.900Z,44.78
2022-11-04T14:30:36.965Z,44.76
2022-11-04T14:33:08.285Z,44.80
2022-11-04T14:35:37.321Z,44.51
2022-11-04T14:38:25.582Z,44.22
2022-11-04T14:41:13.733Z,44.34
2022-11-04T14:43:44.470Z,44.15
2022-11-04T14:46:18.964Z,44.50
2022-11-04T14:48:52.197Z,44.37
2022-11-04T14:51:27.715Z,44.32
2022-11-04T14:54:04.668Z,44.00
2022-11-04T14:56:32.704Z,44.70
2022-11-04T14:59:03.292Z,45.74
2022-11-04T15:01:35.446Z,46.64
2022-11-04T15:04:12.153Z,47.42
2022-11-04T15:06:54.320Z,48.07
2022-11-04T15:09:26.482Z,48.57
2022-11-04T15:12:20.617Z,49.02
2022-11-04T15:14:48.798Z,49.67
2022-11-04T15:17:20.495Z,49.94
2022-11-04T15:19:51.647Z,50.25
2022-11-04T15:22:20.744Z,50.56
2022-11-04T15:24:51.596Z,50.78
2022-11-04T15:27:25.507Z,50.92
2022-11-04T15:29:58.591Z,51.14
2022-11-04T15:32:27.303Z,51.70
2022-11-04T15:34:56.664Z,52.15
2022-11-04T15:37:26.595Z,52.54
2022-11-04T15:39:58.859Z,52.66
2022-11-04T15:42:42.976Z,52.93
2022-11-04T15:45:30.254Z,52.91
2022-11-04T15:48:26.989Z,53.33
2022-11-04T15:51:14.267Z,53.79
2022-11-04T15:54:00.872Z,53.72
2022-11-04T15:56:43.005Z,54.06
2022-11-04T15:59:24.644Z,54.45
2022-11-04T16:02:00.383Z,54.75
2022-11-04T16:04:31.249Z,54.81
2022-11-04T16:07:26.250Z,54.35
2022-11-04T16:10:01.154Z,54.67
2022-11-04T16:12:40.290Z,54.41
2022-11-04T16:15:55.365Z,54.37
2022-11-04T16:18:37.462Z,54.73
2022-11-04T16:21:11.087Z,54.99
2022-11-04T16:23:46.734Z,54.75
2022-11-04T16:26:24.916Z,55.29
2022-11-04T16:29:05.024Z,55.14
2022-11-04T16:31:35.902Z,55.21
2022-11-04T16:34:05.064Z,55.19
2022-11-04T16:36:35.897Z,55.00
2022-11-04T16:39:08.504Z,55.03
2022-11-04T16:41:38.541Z,55.09
2022-11-04T16:44:19.990Z,55.52
2022-11-04T16:46:48.043Z,55.73
2022-11-04T16:49:18.348Z,56.28
2022-11-04T16:51:47.013Z,56.30
2022-11-04T16:54:15.049Z,56.34
2022-11-04T16:56:43.181Z,56.12
2022-11-04T16:59:13.604Z,56.16
2022-11-04T17:01:41.863Z,56.08
2022-11-04T17:04:10.769Z,55.88
2022-11-04T17:06:39.679Z,55.77
2022-11-04T17:09:18.284Z,55.56
2022-11-04T17:11:46.277Z,55.93
2022-11-04T17:14:16.472Z,56.00
2022-11-04T17:16:44.587Z,55.84
2022-11-04T17:19:17.379Z,55.74
2022-11-04T17:21:46.338Z,55.74
2022-11-04T17:24:14.481Z,56.05
2022-11-04T17:26:42.529Z,56.10
2022-11-04T17:29:16.918Z,56.01
2022-11-04T17:31:46.800Z,56.55
2022-11-04T17:34:14.926Z,57.07
2022-11-04T17:36:42.933Z,56.94
2022-11-04T17:39:10.968Z,56.93
2022-11-04T17:41:56.357Z,57.11
2022-11-04T17:44:24.415Z,57.23
2022-11-04T17:46:53.792Z,57.11
2022-11-04T17:49:23.469Z,57.61
2022-11-04T17:51:53.728Z,57.74
2022-11-04T17:54:22.695Z,57.54
2022-11-04T17:56:50.873Z,57.60
2022-11-04T17:59:20.433Z,57.77
2022-11-04T18:01:48.871Z,57.77
2022-11-04T18:04:20.596Z,57.53
2022-11-04T18:06:48.917Z,57.58
2022-11-04T18:09:17.410Z,57.73
2022-11-04T18:12:03.600Z,57.94
2022-11-04T18:14:32.334Z,58.03
2022-11-04T18:17:00.533Z,58.22
2022-11-04T18:19:30.281Z,58.28
2022-11-04T18:21:58.290Z,58.25
2022-11-04T18:24:26.318Z,58.20
2022-11-04T18:26:54.484Z,58.16
2022-11-04T18:29:23.038Z,57.94
2022-11-04T18:31:51.089Z,57.89
2022-11-04T18:34:20.068Z,57.86
2022-11-04T18:36:50.107Z,57.93
2022-11-04T18:39:19.558Z,57.94
2022-11-04T18:41:47.939Z,57.84
2022-11-04T18:44:17.967Z,57.92
2022-11-04T18:46:46.088Z,57.96
2022-11-04T18:49:14.553Z,57.99
2022-11-04T18:51:43.189Z,58.19
2022-11-04T18:54:13.323Z,58.33
2022-11-04T18:56:41.377Z,58.47
2022-11-04T18:59:10.708Z,58.43
2022-11-04T19:01:39.046Z,58.37
2022-11-04T19:04:07.262Z,58.22
2022-11-04T19:06:38.620Z,58.24
2022-11-04T19:09:32.430Z,58.31
2022-11-04T19:12:12.776Z,58.35
2022-11-04T19:14:41.040Z,58.46
2022-11-04T19:17:09.389Z,58.47
2022-11-04T19:19:37.382Z,58.51
2022-11-04T19:22:05.388Z,58.51
2022-11-04T19:24:33.505Z,58.96
2022-11-04T19:27:04.450Z,59.12
2022-11-04T19:29:32.981Z,59.42
2022-11-04T19:32:01.094Z,59.32
2022-11-04T19:34:29.170Z,59.32
2022-11-04T19:36:57.240Z,59.19
2022-11-04T19:39:25.309Z,59.37
2022-11-04T19:42:10.824Z,59.13
2022-11-04T19:44:40.308Z,58.89
2022-11-04T19:47:09.073Z,58.74
2022-11-04T19:49:37.062Z,58.67
2022-11-04T19:52:05.441Z,58.84
2022-11-04T19:54:33.604Z,58.93
2022-11-04T19:57:01.628Z,59.04
2022-11-04T19:59:29.644Z,59.08
2022-11-04T20:01:59.081Z,59.25
2022-11-04T20:04:27.137Z,59.51
2022-11-04T20:06:55.111Z,59.90
2022-11-04T20:09:23.613Z,59.69
2022-11-04T20:12:11.933Z,59.67
2022-11-04T20:14:43.047Z,59.67
2022-11-04T20:17:12.450Z,59.63
2022-11-04T20:19:40.666Z,59.57
2022-11-04T20:22:08.653Z,59.41
2022-11-04T20:24:36.927Z,59.26
2022-11-04T20:27:05.245Z,59.13
2022-11-04T20:29:35.440Z,59.09
2022-11-04T20:32:05.818Z,59.11
2022-11-04T20:34:35.982Z,59.16
2022-11-04T20:37:04.088Z,59.20
2022-11-04T20:39:32.489Z,59.19
2022-11-04T20:42:00.492Z,59.22
2022-11-04T20:44:28.527Z,59.37
2022-11-04T20:47:01.079Z,59.44
2022-11-04T20:49:29.889Z,59.31
2022-11-04T20:51:59.216Z,59.11
2022-11-04T20:54:27.363Z,58.74
2022-11-04T20:56:55.520Z,58.90
2022-11-04T20:59:23.513Z,59.16
2022-11-04T21:01:53.076Z,59.22
2022-11-04T21:04:22.127Z,59.43
2022-11-04T21:06:51.671Z,59.48
2022-11-04T21:09:22.349Z,59.61
2022-11-04T21:11:51.393Z,59.49
2022-11-04T21:14:20.331Z,59.32
2022-11-04T21:16:48.916Z,59.31
2022-11-04T21:19:17.347Z,59.27
2022-11-04T21:21:47.026Z,59.18
2022-11-04T21:24:19.599Z,59.16
2022-11-04T21:26:49.301Z,58.89
2022-11-04T21:29:19.671Z,58.92
2022-11-04T21:31:48.898Z,58.83
2022-11-04T21:34:17.116Z,58.80
2022-11-04T21:36:45.697Z,58.85
2022-11-04T21:39:14.441Z,59.00
2022-11-04T21:41:42.492Z,58.90
2022-11-04T21:44:14.348Z,58.69
2022-11-04T21:46:42.495Z,58.96
2022-11-04T21:49:13.414Z,58.97
2022-11-04T21:51:41.451Z,59.03
2022-11-04T21:54:09.504Z,59.24
2022-11-04T21:56:37.579Z,59.25
2022-11-04T21:59:06.624Z,59.49
2022-11-04T22:01:36.086Z,59.50
2022-11-04T22:04:04.817Z,59.61
2022-11-04T22:06:35.481Z,59.54
2022-11-04T22:09:05.332Z,59.72
2022-11-04T22:11:36.439Z,59.71
2022-11-04T22:14:07.461Z,60.01
2022-11-04T22:16:38.708Z,60.00
2022-11-04T22:19:08.940Z,59.99
2022-11-04T22:21:39.947Z,60.02
2022-11-04T22:24:11.110Z,60.12
2022-11-04T22:26:39.687Z,60.08
2022-11-04T22:29:07.912Z,60.20
2022-11-04T22:31:38.753Z,60.03
2022-11-04T22:34:07.221Z,60.22
2022-11-04T22:36:35.578Z,60.06
2022-11-04T22:39:05.477Z,59.90
2022-11-04T22:41:34.499Z,59.83
2022-11-04T22:44:03.292Z,60.00
2022-11-04T22:46:33.484Z,59.90
2022-11-04T22:49:02.885Z,59.90
2022-11-04T22:51:31.663Z,60.01
2022-11-04T22:54:06.560Z,59.92
2022-11-04T22:56:35.865Z,59.78
2022-11-04T22:59:04.097Z,59.86
2022-11-04T23:01:33.857Z,60.06
2022-11-04T23:04:03.674Z,59.95
2022-11-04T23:06:31.698Z,59.77
2022-11-04T23:09:01.062Z,59.76
2022-11-04T23:11:47.902Z,59.86
2022-11-04T23:14:35.876Z,60.03
2022-11-04T23:17:29.361Z,60.20
2022-11-04T23:19:58.809Z,60.30
2022-11-04T23:22:44.257Z,60.44
2022-11-04T23:25:13.532Z,60.39
2022-11-04T23:28:03.775Z,60.16
2022-11-04T23:30:34.670Z,60.25
2022-11-04T23:33:04.837Z,60.18
2022-11-04T23:35:55.719Z,59.93
2022-11-04T23:38:24.338Z,60.35
2022-11-04T23:41:12.763Z,60.31
2022-11-04T23:43:40.844Z,60.42
2022-11-04T23:46:26.339Z,60.29
2022-11-04T23:49:11.671Z,60.67
2022-11-04T23:51:57.957Z,60.67
2022-11-04T23:54:43.585Z,60.56
2022-11-04T23:57:31.396Z,60.57
